Time;durP1;ratioP1;P1;durP2;ratioP2;P2;SDS_P1;SDS_P2;PMS_P1;PMS_P2;Temp;Humidity;BMP_temperature;BMP_pressure;BME280_temperature;BME280_humidity;BME280_pressure;Samples;Min_cycle;Max_cycle;Signal;HPM_P1;HPM_P2
2022/04/11 00:01:33;;;;;;;8.20;4.50;;;;;;;7.47;49.72;102017.22;5198951;28;20770;-40
2022/04/11 00:04:06;;;;;;;8.52;4.63;;;;;;;7.46;49.78;102016.34;5203236;28;20521;-40
2022/04/11 00:06:39;;;;;;;10.35;4.50;;;;;;;7.44;49.96;102012.16;5194486;28;20436;-40
2022/04/11 00:09:11;;;;;;;9.68;3.95;;;;;;;7.42;49.81;102006.16;5191282;28;20448;-40
2022/04/11 00:11:44;;;;;;;8.10;4.85;;;;;;;7.39;50.06;102000.13;5173698;28;20403;-41
2022/04/11 00:14:16;;;;;;;9.40;4.30;;;;;;;7.41;50.16;101993.97;5164393;28;20955;-41
2022/04/11 00:16:50;;;;;;;8.40;3.90;;;;;;;7.42;50.08;102008.78;5178992;28;20444;-41
2022/04/11 00:19:22;;;;;;;10.55;4.07;;;;;;;7.42;49.97;101999.09;5170769;28;20445;-39
2022/04/11 00:21:55;;;;;;;8.15;3.55;;;;;;;7.43;50.26;101999.94;5171662;28;20507;-40
2022/04/11 00:24:27;;;;;;;6.57;3.42;;;;;;;7.39;50.00;101994.88;5173953;28;20444;-41
2022/04/11 00:27:00;;;;;;;6.22;3.22;;;;;;;7.39;50.15;102000.13;5169812;28;20438;-42
2022/04/11 00:29:32;;;;;;;7.80;3.40;;;;;;;7.39;50.09;101994.88;5169429;28;20996;-40
2022/04/11 00:32:07;;;;;;;6.57;3.78;;;;;;;7.39;50.25;101988.78;5176952;28;20462;-39
2022/04/11 00:34:40;;;;;;;6.30;3.45;;;;;;;7.38;50.10;101993.19;5180828;28;20759;-40
2022/04/11 00:37:12;;;;;;;7.82;3.60;;;;;;;7.38;50.27;101982.69;5170201;28;20404;-40
2022/04/11 00:39:44;;;;;;;7.10;3.65;;;;;;;7.38;50.15;101993.19;5177318;28;20827;-48
2022/04/11 00:42:17;;;;;;;6.00;3.75;;;;;;;7.37;50.30;101978.38;5177635;28;20482;-40
2022/04/11 00:44:49;;;;;;;6.78;4.07;;;;;;;7.37;50.06;101988.91;5173173;28;20509;-42
2022/04/11 00:47:23;;;;;;;7.18;3.45;;;;;;;7.36;50.09;101979.31;5170729;28;20499;-40
2022/04/11 00:50:00;;;;;;;7.05;3.92;;;;;;;7.39;50.26;101984.38;5161214;28;20439;-40
2022/04/11 00:52:35;;;;;;;8.43;4.35;;;;;;;7.39;50.08;101980.91;5180842;28;20473;-40
2022/04/11 00:55:09;;;;;;;5.80;3.63;;;;;;;7.36;50.32;101984.56;5176815;28;20435;-39
2022/04/11 00:57:41;;;;;;;9.13;4.93;;;;;;;7.36;50.31;101984.56;5182403;28;20872;-41
2022/04/11 01:00:15;;;;;;;10.25;4.40;;;;;;;7.35;50.14;101987.31;5173971;28;20744;-38
2022/04/11 01:02:48;;;;;;;7.55;3.60;;;;;;;7.33;50.39;101992.66;5185579;28;20501;-41
2022/04/11 01:05:21;;;;;;;5.97;3.83;;;;;;;7.28;50.42;101986.88;5176363;28;20422;-39
2022/04/11 01:07:53;;;;;;;7.55;3.90;;;;;;;7.31;50.48;101991.94;5175317;28;20492;-39
2022/04/11 01:10:26;;;;;;;5.10;3.25;;;;;;;7.28;50.27;101981.63;5190452;28;20448;-43
2022/04/11 01:12:58;;;;;;;5.33;3.30;;;;;;;7.27;50.50;101977.28;5193024;28;20427;-39
2022/04/11 01:15:31;;;;;;;8.43;3.63;;;;;;;7.23;50.16;101988.94;5191961;28;20476;-39
2022/04/11 01:18:06;;;;;;;7.05;3.65;;;;;;;7.23;50.57;101994.19;5185534;28;21913;-39
2022/04/11 01:20:39;;;;;;;8.50;3.70;;;;;;;7.24;50.65;101980.13;5194593;28;20469;-40
2022/04/11 01:23:13;;;;;;;7.95;4.03;;;;;;;7.25;50.53;101981.81;5197747;28;20565;-40
2022/04/11 01:25:51;;;;;;;6.72;3.55;;;;;;;7.26;50.72;101982.66;5193749;28;20402;-39
2022/04/11 01:28:24;;;;;;;7.93;3.83;;;;;;;7.28;50.74;101976.38;5191244;28;20593;-40
2022/04/11 01:30:57;;;;;;;10.17;3.73;;;;;;;7.32;50.76;101977.00;5195289;28;20927;-39
2022/04/11 01:33:31;;;;;;;7.78;3.70;;;;;;;7.32;50.91;101975.22;5192324;28;20514;-39
2022/04/11 01:36:04;;;;;;;9.25;4.30;;;;;;;7.36;50.67;101973.22;5192501;28;21169;-39
2022/04/11 01:38:37;;;;;;;8.87;3.47;;;;;;;7.31;50.80;101965.66;5190732;28;20486;-39
2022/04/11 01:41:10;;;;;;;6.57;3.83;;;;;;;7.36;50.77;101971.44;5193054;28;20931;-39
2022/04/11 01:43:45;;;;;;;8.02;3.88;;;;;;;7.36;50.62;101973.22;5194927;28;20463;-39
2022/04/11 01:46:17;;;;;;;9.45;4.00;;;;;;;7.32;50.81;101972.59;5185945;28;20423;-39
2022/04/11 01:48:50;;;;;;;6.63;3.72;;;;;;;7.32;50.91;101964.69;5189649;28;20524;-42
2022/04/11 01:51:22;;;;;;;7.95;4.25;;;;;;;7.31;50.70;101959.56;5197522;28;20501;-39
2022/04/11 01:53:58;;;;;;;7.60;3.72;;;;;;;7.30;50.91;101963.09;5194672;28;20417;-39
2022/04/11 01:56:30;;;;;;;8.48;3.55;;;;;;;7.25;50.76;101960.78;5191215;28;20763;-40
2022/04/11 01:59:02;;;;;;;6.53;3.00;;;;;;;7.18;51.16;101943.72;5200819;28;20425;-44
2022/04/11 02:01:35;;;;;;;8.63;3.97;;;;;;;7.26;51.14;101965.09;5201590;28;20480;-40
2022/04/11 02:04:07;;;;;;;9.95;3.88;;;;;;;7.26;51.17;101966.91;5202958;28;20488;-40
2022/04/11 02:06:40;;;;;;;8.40;4.40;;;;;;;7.23;50.96;101956.59;5198744;28;20393;-44
2022/04/11 02:09:14;;;;;;;6.30;4.05;;;;;;;7.16;50.94;101948.25;5198491;28;20484;-40
2022/04/11 02:11:46;;;;;;;10.63;4.13;;;;;;;7.22;51.04;101965.41;5194777;28;20407;-40
2022/04/11 02:14:18;;;;;;;8.65;4.38;;;;;;;7.13;51.15;101945.84;5195954;28;20564;-41
2022/04/11 02:16:51;;;;;;;7.70;4.57;;;;;;;7.13;51.28;101961.59;5199026;28;20427;-39
2022/04/11 02:19:23;;;;;;;8.32;3.80;;;;;;;7.13;51.16;101959.81;5199344;28;20425;-39
2022/04/11 02:21:56;;;;;;;5.50;4.10;;;;;;;7.09;51.51;101960.09;5193916;28;20425;-40
2022/04/11 02:24:29;;;;;;;8.15;4.45;;;;;;;7.08;51.41;101954.00;5194177;28;20770;-42
2022/04/11 02:27:02;;;;;;;9.63;4.15;;;;;;;6.44;51.43;101859.25;5195219;28;20466;-41
2022/04/11 02:29:34;;;;;;;10.88;4.93;;;;;;;7.03;51.35;101952.59;5200176;28;20502;-41
2022/04/11 02:32:08;;;;;;;9.38;4.72;;;;;;;7.01;51.46;101957.97;5193477;28;20882;-40
2022/04/11 02:34:40;;;;;;;10.18;4.30;;;;;;;6.99;51.75;101951.13;5191727;28;20536;-40
2022/04/11 02:37:13;;;;;;;8.63;4.75;;;;;;;6.97;51.57;101955.63;5193557;28;21005;-42
2022/04/11 02:39:47;;;;;;;8.77;5.32;;;;;;;6.92;51.91;101959.41;5192663;28;20419;-39
2022/04/11 02:42:22;;;;;;;9.52;4.45;;;;;;;6.89;51.88;101954.34;5183546;28;20445;-40
2022/04/11 02:44:55;;;;;;;7.10;4.82;;;;;;;6.87;51.98;101950.13;5198593;28;20426;-42
2022/04/11 02:47:28;;;;;;;9.68;4.78;;;;;;;6.85;52.07;101941.53;5194689;28;20435;-40
2022/04/11 02:50:01;;;;;;;15.32;5.93;;;;;;;6.83;52.21;101946.88;5199930;28;20834;-39
2022/04/11 02:52:33;;;;;;;12.07;4.57;;;;;;;6.82;51.96;101939.09;5190095;28;20411;-40
2022/04/11 02:55:09;;;;;;;8.02;5.20;;;;;;;6.80;52.31;101939.19;5193769;28;20413;-40
2022/04/11 02:57:42;;;;;;;9.18;4.65;;;;;;;6.80;52.19;101941.81;5205386;28;20516;-39
2022/04/11 03:00:16;;;;;;;8.90;4.65;;;;;;;6.79;52.49;101936.69;5194088;28;20407;-38
2022/04/11 03:02:48;;;;;;;9.33;5.17;;;;;;;6.79;52.59;101932.25;5194951;28;20544;-40
2022/04/11 03:05:21;;;;;;;7.50;5.28;;;;;;;6.81;52.44;101935.59;5197206;28;20501;-40
2022/04/11 03:07:53;;;;;;;6.18;4.65;;;;;;;6.76;52.58;101921.13;5195702;28;20431;-39
2022/04/11 03:10:27;;;;;;;9.77;4.90;;;;;;;6.80;52.77;101933.94;5195109;28;20422;-40
2022/04/11 03:12:59;;;;;;;7.47;5.20;;;;;;;6.84;52.83;101929.31;5198421;28;20522;-40
2022/04/11 03:15:32;;;;;;;11.95;5.25;;;;;;;6.84;52.61;101927.53;5189863;28;20507;-39
2022/04/11 03:18:04;;;;;;;13.55;5.05;;;;;;;6.84;52.89;101935.41;5194811;28;20407;-40
2022/04/11 03:20:37;;;;;;;9.93;5.93;;;;;;;6.82;52.90;101932.06;5194943;28;20427;-40
2022/04/11 03:23:09;;;;;;;11.48;5.97;;;;;;;6.86;52.95;101927.44;5199247;28;20429;-40
2022/04/11 03:25:43;;;;;;;10.57;5.38;;;;;;;6.86;53.13;101930.91;5192770;28;20445;-39
2022/04/11 03:28:15;;;;;;;9.77;5.60;;;;;;;6.88;53.10;101929.03;5192814;28;20869;-39
2022/04/11 03:30:48;;;;;;;12.43;5.55;;;;;;;6.89;53.32;101920.22;5197291;28;20790;-40
2022/04/11 03:33:20;;;;;;;11.18;6.50;;;;;;;6.87;53.42;101913.38;5194742;28;20784;-40
2022/04/11 03:35:52;;;;;;;12.65;6.18;;;;;;;6.93;53.24;101918.22;5193705;28;20494;-41
2022/04/11 03:38:25;;;;;;;10.95;6.10;;;;;;;6.95;53.33;101920.78;5195384;28;20422;-40
2022/04/11 03:40:58;;;;;;;11.30;5.57;;;;;;;6.97;53.29;101913.59;5194117;28;20850;-39
2022/04/11 03:43:31;;;;;;;11.52;6.10;;;;;;;7.00;53.31;101913.41;5189571;28;20486;-41
2022/04/11 03:46:03;;;;;;;14.77;5.80;;;;;;;7.01;53.63;101920.38;5193109;28;20419;-40
2022/04/11 03:48:36;;;;;;;11.00;6.05;;;;;;;7.04;53.40;101915.75;5192407;28;20436;-39
2022/04/11 03:51:09;;;;;;;12.20;6.30;;;;;;;7.05;53.53;101919.22;5194774;28;20485;-39
2022/04/11 03:53:42;;;;;;;9.23;6.22;;;;;;;7.07;53.66;101919.97;5193847;28;20471;-43
2022/04/11 03:56:17;;;;;;;14.65;7.38;;;;;;;7.09;53.56;101928.56;5204262;28;20894;-40
2022/04/11 03:58:49;;;;;;;12.65;7.22;;;;;;;7.11;53.64;101921.44;5188867;28;20478;-41
2022/04/11 04:01:22;;;;;;;11.93;6.07;;;;;;;7.14;53.86;101927.34;5203484;28;20500;-39
2022/04/11 04:03:54;;;;;;;12.77;6.90;;;;;;;7.15;53.89;101912.41;5199779;28;20516;-40
2022/04/11 04:06:27;;;;;;;11.90;6.88;;;;;;;7.18;53.88;101912.19;5192433;28;20466;-41
2022/04/11 04:09:01;;;;;;;10.50;6.45;;;;;;;7.22;54.07;101911.06;5196941;28;20820;-39
2022/04/11 04:11:35;;;;;;;15.20;7.10;;;;;;;7.26;53.93;101903.81;5199751;28;20488;-39
2022/04/11 04:14:07;;;;;;;11.85;6.70;;;;;;;7.29;53.66;101904.47;5199877;28;20413;-39
2022/04/11 04:16:40;;;;;;;15.00;7.53;;;;;;;7.27;53.76;101916.84;5199474;28;20420;-39
2022/04/11 04:19:12;;;;;;;11.20;6.43;;;;;;;7.35;53.58;101904.06;5200997;28;20440;-39
2022/04/11 04:21:45;;;;;;;9.73;7.25;;;;;;;7.37;53.64;101896.91;5189298;28;20440;-38
2022/04/11 04:24:22;;;;;;;12.50;7.63;;;;;;;7.39;53.55;101895.00;5193930;28;20866;-41
2022/04/11 04:26:56;;;;;;;12.57;7.60;;;;;;;7.44;53.54;101902.59;5195963;28;20763;-39
2022/04/11 04:29:28;;;;;;;12.68;7.50;;;;;;;7.47;53.64;101897.13;5194738;28;20498;-40
2022/04/11 04:32:01;;;;;;;11.35;7.60;;;;;;;7.49;53.40;101895.22;5199879;28;20421;-39
2022/04/11 04:34:33;;;;;;;13.43;8.93;;;;;;;7.53;53.53;101885.38;5202167;28;20413;-39
2022/04/11 04:37:05;;;;;;;14.98;9.45;;;;;;;7.58;53.21;101889.34;5188973;28;20498;-40
2022/04/11 04:39:38;;;;;;;15.10;8.27;;;;;;;7.59;53.36;101890.22;5196186;28;20409;-39
2022/04/11 04:42:12;;;;;;;13.70;7.28;;;;;;;7.63;53.33;101899.56;5194234;28;20427;-39
2022/04/11 04:44:44;;;;;;;17.67;7.82;;;;;;;7.66;53.14;101894.09;5188654;28;20538;-41
2022/04/11 04:47:17;;;;;;;14.45;8.80;;;;;;;7.68;53.19;101893.97;5190360;28;20491;-39
2022/04/11 04:50:29;;;;;;;13.02;8.43;;;;;;;7.71;53.05;101885.88;5188252;28;20462;-39
2022/04/11 04:53:02;;;;;;;17.25;8.77;;;;;;;7.71;52.99;101885.88;5198130;28;20415;-39
2022/04/11 04:55:34;;;;;;;12.13;7.63;;;;;;;7.71;52.92;101883.25;5189943;28;20907;-39
2022/04/11 04:58:08;;;;;;;15.30;8.18;;;;;;;7.71;53.13;101880.63;5196504;28;20874;-40
2022/04/11 05:00:40;;;;;;;13.20;8.07;;;;;;;7.69;52.80;101875.47;5191930;28;20500;-40
2022/04/11 05:03:13;;;;;;;18.25;8.23;;;;;;;7.74;52.66;101891.78;5193047;28;20917;-42
2022/04/11 05:05:45;;;;;;;15.45;9.55;;;;;;;7.77;52.58;101888.94;5189359;28;21139;-39
2022/04/11 05:08:18;;;;;;;18.33;8.63;;;;;;;7.78;52.56;101885.38;5200017;28;20493;-41
2022/04/11 05:10:50;;;;;;;14.13;9.50;;;;;;;7.80;52.83;101888.75;5193473;28;20424;-40
2022/04/11 05:13:24;;;;;;;13.00;8.65;;;;;;;7.79;52.46;101887.03;5193331;28;20415;-40
2022/04/11 05:15:56;;;;;;;14.13;8.70;;;;;;;7.82;52.62;101892.09;5199046;28;20417;-40
2022/04/11 05:18:29;;;;;;;16.73;8.48;;;;;;;7.84;52.52;101895.47;5192960;28;20442;-42
2022/04/11 05:21:01;;;;;;;11.48;8.35;;;;;;;7.86;52.52;101893.53;5192649;28;20424;-45
2022/04/11 05:23:33;;;;;;;15.93;8.57;;;;;;;7.89;52.63;101896.91;5190256;28;20467;-40
2022/04/11 05:26:06;;;;;;;13.77;9.18;;;;;;;7.90;52.35;101899.47;5198987;28;20433;-40
2022/04/11 05:28:40;;;;;;;15.53;9.10;;;;;;;7.92;52.38;101896.72;5194702;28;20497;-39
2022/04/11 05:31:12;;;;;;;13.85;9.15;;;;;;;7.89;52.45;101881.13;5191794;28;20437;-40
2022/04/11 05:33:45;;;;;;;14.43;8.38;;;;;;;7.97;51.93;101890.19;5192917;28;20488;-40
2022/04/11 05:36:18;;;;;;;20.08;10.05;;;;;;;8.02;52.27;101881.97;5196261;28;20494;-44
2022/04/11 05:38:50;;;;;;;15.52;9.38;;;;;;;8.06;52.07;101889.53;5193000;28;20553;-39
2022/04/11 05:41:22;;;;;;;13.43;8.93;;;;;;;8.07;52.17;101879.84;5204496;28;20411;-38
2022/04/11 05:43:56;;;;;;;19.25;8.48;;;;;;;8.14;52.16;101883.72;5195556;28;20978;-39
2022/04/11 05:46:29;;;;;;;14.15;9.10;;;;;;;8.17;51.87;101880.88;5194271;28;20501;-40
2022/04/11 05:49:01;;;;;;;16.27;8.82;;;;;;;8.22;52.10;101884.03;5193559;28;20456;-40
2022/04/11 05:51:34;;;;;;;18.40;9.38;;;;;;;8.25;52.07;101894.34;5191321;28;20458;-40
2022/04/11 05:54:07;;;;;;;20.40;10.20;;;;;;;8.04;51.86;101851.13;5204799;28;20475;-40
2022/04/11 05:56:39;;;;;;;14.60;9.35;;;;;;;8.32;51.86;101890.31;5197020;28;20713;-40
2022/04/11 05:59:14;;;;;;;18.15;10.25;;;;;;;8.40;51.71;101894.25;5200822;28;20417;-40
2022/04/11 06:01:46;;;;;;;16.65;9.00;;;;;;;8.46;51.66;101897.28;5193373;28;20491;-40
2022/04/11 06:04:43;;;;;;;15.10;10.02;;;;;;;8.53;51.62;101897.69;5188802;28;20565;-40
2022/04/11 06:07:20;;;;;;;19.08;10.18;;;;;;;8.60;51.64;101908.59;5184956;28;20429;-43
2022/04/11 06:09:53;;;;;;;17.25;9.40;;;;;;;8.65;51.59;101901.22;5186681;28;20441;-43
2022/04/11 06:12:25;;;;;;;14.60;9.63;;;;;;;8.75;51.56;101908.31;5192561;28;20551;-41
2022/04/11 06:15:00;;;;;;;20.20;9.43;;;;;;;8.83;51.39;101909.59;5192219;28;20427;-40
2022/04/11 06:17:32;;;;;;;14.77;9.68;;;;;;;8.90;51.30;101906.38;5187093;28;20419;-41
2022/04/11 06:20:07;;;;;;;14.15;9.48;;;;;;;9.01;51.07;101908.19;5187452;28;20838;-40
2022/04/11 06:22:41;;;;;;;19.08;10.23;;;;;;;9.12;50.99;101904.78;5192860;28;20498;-40
2022/04/11 06:25:13;;;;;;;13.33;9.73;;;;;;;9.21;50.94;101910.22;5187197;28;20426;-42
2022/04/11 06:27:46;;;;;;;21.50;10.90;;;;;;;9.30;50.88;101910.50;5183802;28;20512;-41
2022/04/11 06:30:20;;;;;;;17.83;10.07;;;;;;;9.32;50.83;101900.66;5188096;28;20496;-41
2022/04/11 06:32:52;;;;;;;15.35;9.95;;;;;;;9.50;50.74;101920.34;5186779;28;21008;-42
2022/04/11 06:35:25;;;;;;;17.65;9.65;;;;;;;9.57;50.71;101918.09;5188377;28;20811;-42
2022/04/11 06:37:57;;;;;;;16.85;9.52;;;;;;;9.80;50.47;101908.44;5188333;28;20458;-39
2022/04/11 06:40:29;;;;;;;17.05;9.65;;;;;;;10.19;50.45;101919.47;5196853;28;20498;-40
2022/04/11 06:43:02;;;;;;;18.42;9.85;;;;;;;10.86;49.59;101922.03;5205784;28;21170;-42
2022/04/11 06:45:36;;;;;;;18.13;9.57;;;;;;;11.95;48.56;101911.13;5200291;28;20777;-41
2022/04/11 06:48:09;;;;;;;20.90;9.05;;;;;;;13.69;47.00;101909.66;5197920;28;20495;-41
2022/04/11 06:50:42;;;;;;;17.37;8.60;;;;;;;15.51;45.35;101909.59;5200908;28;20421;-42
2022/04/11 06:53:15;;;;;;;15.75;8.23;;;;;;;17.03;43.72;101918.59;5196898;28;20429;-43
2022/04/11 06:55:48;;;;;;;18.07;8.33;;;;;;;18.32;42.43;101912.31;5199527;28;20786;-41
2022/04/11 06:58:20;;;;;;;17.92;8.35;;;;;;;19.31;41.42;101905.31;5203082;28;20405;-41
2022/04/11 07:00:54;;;;;;;14.80;8.13;;;;;;;20.22;40.39;101908.72;5200123;28;20901;-42
2022/04/11 07:03:30;;;;;;;20.42;7.63;;;;;;;20.81;39.56;101896.16;5196784;28;20950;-41
2022/04/11 07:06:02;;;;;;;17.50;7.35;;;;;;;21.21;39.23;101901.88;5202434;28;20659;-41
2022/04/11 07:08:34;;;;;;;15.13;7.00;;;;;;;21.64;38.45;101899.94;5198508;28;20502;-42
2022/04/11 07:11:07;;;;;;;14.43;7.30;;;;;;;22.16;37.63;101886.97;5190705;28;20484;-42
2022/04/11 07:13:39;;;;;;;16.10;7.30;;;;;;;22.36;37.20;101885.25;5191144;28;20846;-42
2022/04/11 07:16:13;;;;;;;17.95;8.07;;;;;;;22.63;36.75;101879.91;5194039;28;20902;-43
2022/04/11 07:18:46;;;;;;;18.67;8.10;;;;;;;22.86;36.31;101874.97;5183636;28;20498;-41
2022/04/11 07:21:19;;;;;;;18.33;7.65;;;;;;;23.58;35.52;101877.84;5191921;28;20998;-43
2022/04/11 07:23:51;;;;;;;16.67;7.65;;;;;;;23.82;34.79;101874.50;5196870;28;20526;-45
2022/04/11 07:26:23;;;;;;;15.77;7.10;;;;;;;24.23;34.46;101865.19;5200053;28;20414;-42
2022/04/11 07:28:56;;;;;;;20.85;7.20;;;;;;;24.69;34.00;101863.28;5205174;28;20500;-43
2022/04/11 07:31:30;;;;;;;16.35;7.65;;;;;;;25.16;33.26;101867.28;5188215;28;20537;-45
2022/04/11 07:34:02;;;;;;;12.77;7.75;;;;;;;25.09;33.09;101866.50;5197842;28;20458;-42
2022/04/11 07:36:35;;;;;;;15.00;7.53;;;;;;;24.88;33.08;101861.47;5188204;28;20906;-44
2022/04/11 07:39:07;;;;;;;16.40;8.23;;;;;;;24.78;33.01;101873.59;5183785;28;20454;-46
2022/04/11 07:41:40;;;;;;;18.02;8.18;;;;;;;24.81;32.99;101869.63;5184831;28;20978;-47
2022/04/11 07:44:12;;;;;;;18.42;7.93;;;;;;;24.62;32.90;101866.00;5190564;28;20407;-43
2022/04/11 07:46:46;;;;;;;13.13;7.70;;;;;;;24.42;32.82;101859.91;5186165;28;20423;-46
2022/04/11 07:49:19;;;;;;;14.40;7.07;;;;;;;24.51;32.60;101861.31;5186141;28;20509;-48
2022/04/11 07:51:51;;;;;;;17.87;7.33;;;;;;;24.64;32.29;101866.63;5186847;28;20847;-45
2022/04/11 07:54:24;;;;;;;19.02;8.23;;;;;;;24.55;32.33;101865.22;5184076;28;20778;-52
2022/04/11 07:56:56;;;;;;;13.43;6.40;;;;;;;24.30;32.42;101855.16;5187484;28;20824;-49
2022/04/11 07:59:28;;;;;;;15.43;6.95;;;;;;;23.97;32.42;101857.19;5192291;28;20419;-51
2022/04/11 08:02:02;;;;;;;10.90;6.15;;;;;;;23.69;32.53;101863.72;5170034;28;20891;-51
2022/04/11 08:04:35;;;;;;;12.50;6.60;;;;;;;23.68;32.60;101856.66;5173947;28;20446;-45
2022/04/11 08:07:07;;;;;;;13.57;7.03;;;;;;;23.83;32.32;101854.56;5185748;28;20933;-46
2022/04/11 08:09:39;;;;;;;13.02;6.93;;;;;;;23.88;32.06;101849.38;5192226;28;20420;-49
2022/04/11 08:12:12;;;;;;;12.97;6.47;;;;;;;23.88;32.06;101857.47;5189860;28;20883;-46
2022/04/11 08:14:44;;;;;;;19.10;7.13;;;;;;;24.06;31.89;101847.81;5186408;28;20883;-45
2022/04/11 08:17:18;;;;;;;12.43;6.63;;;;;;;23.96;31.77;101852.84;5188242;28;20753;-48
2022/04/11 08:19:51;;;;;;;12.27;6.23;;;;;;;23.55;31.89;101840.53;5195565;28;20421;-43
2022/04/11 08:22:23;;;;;;;9.98;5.78;;;;;;;22.97;32.49;101842.03;5185812;28;20506;-46
2022/04/11 08:24:55;;;;;;;13.75;6.55;;;;;;;22.99;32.43;101842.66;5190720;28;20922;-49
2022/04/11 08:27:28;;;;;;;12.55;6.70;;;;;;;23.05;32.31;101835.63;5187186;28;20814;-46
2022/04/11 08:30:00;;;;;;;11.45;6.13;;;;;;;22.74;32.26;101828.97;5186180;28;20860;-49
2022/04/11 08:32:40;;;;;;;11.43;5.78;;;;;;;22.54;32.61;101833.47;5184938;28;20464;-49
2022/04/11 08:35:12;;;;;;;11.25;5.68;;;;;;;22.41;32.38;101839.69;5187900;28;20942;-45
2022/04/11 08:37:45;;;;;;;10.50;5.50;;;;;;;22.14;32.90;101833.34;5188139;28;20562;-44
2022/04/11 08:40:19;;;;;;;9.32;4.90;;;;;;;22.04;32.81;101822.97;5182216;28;20430;-49
2022/04/11 08:42:52;;;;;;;8.65;5.18;;;;;;;22.16;32.92;101830.47;5185082;28;20423;-45
2022/04/11 08:45:25;;;;;;;11.73;5.65;;;;;;;21.83;33.04;101836.56;5190215;28;20620;-44
2022/04/11 08:48:00;;;;;;;9.98;5.22;;;;;;;21.61;33.37;101833.97;5192625;28;20472;-47
2022/04/11 08:50:33;;;;;;;10.27;5.05;;;;;;;21.35;33.55;101823.91;5189982;28;20462;-43
2022/04/11 08:53:06;;;;;;;13.65;5.40;;;;;;;21.33;33.62;101833.97;5184796;28;21197;-45
2022/04/11 08:55:39;;;;;;;10.50;5.20;;;;;;;21.41;33.52;101830.34;5189793;28;20431;-44
2022/04/11 08:58:11;;;;;;;9.15;4.25;;;;;;;21.19;33.61;101813.44;5196225;28;20490;-44
2022/04/11 09:00:44;;;;;;;8.18;4.78;;;;;;;20.80;34.05;101825.50;5198010;28;20857;-43
2022/04/11 09:03:18;;;;;;;10.48;5.13;;;;;;;20.37;34.25;101825.47;5189134;28;20489;-46
2022/04/11 09:06:07;;;;;;;11.32;6.05;;;;;;;20.07;34.71;101824.75;5186408;28;20853;-44
2022/04/11 09:08:50;;;;;;;8.53;4.80;;;;;;;19.88;34.58;101826.19;5195276;28;20455;-52
2022/04/11 09:11:30;;;;;;;9.32;5.85;;;;;;;19.56;34.77;101817.47;5194139;28;20408;-43
2022/04/11 09:14:05;;;;;;;12.23;5.57;;;;;;;19.34;34.88;101808.50;5204986;28;20509;-45
2022/04/11 09:16:51;;;;;;;7.38;5.15;;;;;;;19.37;34.65;101817.19;5197307;28;20507;-44
2022/04/11 09:19:27;;;;;;;10.50;5.22;;;;;;;19.03;35.24;101822.03;5197546;28;20829;-43
2022/04/11 09:22:00;;;;;;;8.43;4.85;;;;;;;18.84;34.86;101839.44;5194886;28;20978;-43
2022/04/11 09:24:33;;;;;;;9.20;5.47;;;;;;;18.59;35.09;101819.22;5199422;28;20515;-42
2022/04/11 09:27:06;;;;;;;8.55;5.47;;;;;;;18.28;35.46;101806.72;5205477;28;20530;-43
2022/04/11 09:29:44;;;;;;;9.00;5.28;;;;;;;17.95;35.34;101777.50;5202608;28;20427;-45
2022/04/11 09:32:17;;;;;;;11.80;5.57;;;;;;;18.07;35.11;101809.19;5186847;28;20910;-45
2022/04/11 09:34:55;;;;;;;10.20;4.80;;;;;;;18.04;35.21;101804.19;5189519;28;20430;-43
2022/04/11 09:37:28;;;;;;;12.60;5.63;;;;;;;18.13;35.02;101813.81;5195297;28;20870;-43
2022/04/11 09:40:02;;;;;;;13.38;5.85;;;;;;;17.64;35.02;101748.06;5194338;28;20414;-46
2022/04/11 09:42:36;;;;;;;12.37;5.73;;;;;;;17.90;35.15;101813.75;5197240;28;20787;-42
2022/04/11 09:45:17;;;;;;;13.88;5.70;;;;;;;17.85;35.08;101790.25;5188820;28;20564;-42
2022/04/11 09:48:01;;;;;;;7.60;5.20;;;;;;;17.97;34.94;101802.22;5186447;28;20571;-45
2022/04/11 09:50:35;;;;;;;9.02;5.28;;;;;;;17.90;34.87;101800.41;5188673;28;20417;-44
2022/04/11 09:53:13;;;;;;;15.60;6.40;;;;;;;17.75;34.80;101819.00;5186105;28;20557;-48
2022/04/11 09:55:48;;;;;;;9.23;5.82;;;;;;;17.64;34.93;101792.63;5194063;28;20409;-45
2022/04/11 09:58:39;;;;;;;10.73;5.20;;;;;;;17.47;34.67;101776.69;5183689;28;20865;-43
2022/04/11 10:01:12;;;;;;;11.80;5.55;;;;;;;17.52;34.75;101797.53;5189611;28;20545;-47
2022/04/11 10:03:47;;;;;;;10.05;5.20;;;;;;;17.41;34.68;101788.06;5189567;28;20521;-43
2022/04/11 10:06:21;;;;;;;12.48;6.22;;;;;;;17.38;34.64;101801.75;5183857;28;20509;-43
2022/04/11 10:08:53;;;;;;;12.23;5.93;;;;;;;17.42;34.54;101799.56;5187317;28;20504;-42
2022/04/11 10:11:26;;;;;;;11.18;6.03;;;;;;;17.35;34.45;101799.41;5186538;28;20554;-51
2022/04/11 10:13:59;;;;;;;10.07;6.07;;;;;;;17.37;34.43;101796.56;5188340;28;21340;-45
2022/04/11 10:16:32;;;;;;;9.15;6.20;;;;;;;17.43;34.20;101796.69;5189332;28;20721;-42
2022/04/11 10:19:05;;;;;;;12.10;5.88;;;;;;;17.45;34.31;101793.88;5186963;28;20498;-43
2022/04/11 10:21:42;;;;;;;9.07;6.30;;;;;;;17.42;34.37;101800.38;5185607;28;20432;-42
2022/04/11 10:24:28;;;;;;;12.47;6.43;;;;;;;17.29;34.22;101789.41;5185538;28;20438;-43
2022/04/11 10:27:19;;;;;;;12.68;6.28;;;;;;;17.26;34.17;101800.44;5192173;28;20449;-42
2022/04/11 10:29:53;;;;;;;10.20;6.75;;;;;;;17.17;34.18;101785.44;5183347;28;20411;-44
2022/04/11 10:32:28;;;;;;;14.33;7.67;;;;;;;17.17;34.34;101790.78;5183340;28;21118;-43
2022/04/11 10:35:03;;;;;;;25.45;16.67;;;;;;;17.19;34.17;101791.47;5184800;28;20587;-43
2022/04/11 10:38:08;;;;;;;12.88;7.68;;;;;;;17.05;34.03;101791.13;5188634;28;21712;-47
2022/04/11 10:40:48;;;;;;;11.40;7.25;;;;;;;16.95;34.27;101771.78;5184315;28;20407;-43
2022/04/11 10:43:21;;;;;;;12.15;7.05;;;;;;;16.93;34.37;101771.13;5184290;28;20834;-42
2022/04/11 10:46:03;;;;;;;11.93;7.53;;;;;;;16.90;34.41;101767.97;5187622;28;20422;-45
2022/04/11 10:49:05;;;;;;;13.63;7.10;;;;;;;16.80;34.39;101762.81;5188871;28;22114;-44
2022/04/11 10:51:38;;;;;;;13.15;6.90;;;;;;;16.80;34.38;101768.16;5184228;28;20417;-43
2022/04/11 10:54:21;;;;;;;11.70;7.75;;;;;;;16.89;34.30;101756.47;5189194;28;20542;-45
2022/04/11 10:56:55;;;;;;;13.35;7.50;;;;;;;16.98;34.15;101754.63;5188190;28;20457;-44
2022/04/11 10:59:28;;;;;;;11.63;7.53;;;;;;;17.06;34.07;101754.59;5188861;28;20454;-46
2022/04/11 11:02:01;;;;;;;14.35;6.85;;;;;;;16.96;34.11;101743.28;5189630;28;20423;-44
2022/04/11 11:04:34;;;;;;;9.88;7.30;;;;;;;16.95;34.13;101745.13;5185453;28;20899;-42
2022/04/11 11:07:29;;;;;;;15.05;8.07;;;;;;;16.86;34.32;101735.44;5186118;28;20448;-43
2022/04/11 11:10:05;;;;;;;14.30;7.15;;;;;;;16.78;34.24;101746.13;5192976;28;20417;-44
2022/04/11 11:12:38;;;;;;;12.60;7.22;;;;;;;16.65;34.27;101748.44;5184520;28;20513;-42
2022/04/11 11:15:28;;;;;;;11.70;7.35;;;;;;;16.65;34.26;101732.44;5185871;28;20431;-43
2022/04/11 11:18:01;;;;;;;16.10;7.60;;;;;;;16.70;34.30;101720.28;5183832;28;20415;-42
2022/04/11 11:20:48;;;;;;;11.93;7.97;;;;;;;16.68;34.28;101729.44;5184074;28;20454;-43
2022/04/11 11:23:27;;;;;;;12.43;7.75;;;;;;;16.56;34.19;101721.78;5183225;28;20493;-42
2022/04/11 11:26:12;;;;;;;11.07;7.35;;;;;;;16.52;34.41;101712.44;5186268;28;20417;-41
2022/04/11 11:28:45;;;;;;;9.98;7.50;;;;;;;16.53;34.40;101707.94;5186705;28;20428;-43
2022/04/11 11:31:19;;;;;;;13.75;8.45;;;;;;;16.52;34.37;101704.44;5185706;28;20445;-43
2022/04/11 11:33:56;;;;;;;14.35;8.30;;;;;;;16.48;34.12;101699.63;5188654;28;20469;-43
2022/04/11 11:36:30;;;;;;;13.02;8.07;;;;;;;16.50;34.46;101687.78;5187988;28;20480;-44
2022/04/11 11:39:11;;;;;;;15.85;8.35;;;;;;;16.69;34.29;101701.75;5190054;28;20957;-42
2022/04/11 11:41:45;;;;;;;10.80;7.97;;;;;;;16.76;34.32;101684.13;5186021;28;20888;-42
2022/04/11 11:44:19;;;;;;;12.15;9.05;;;;;;;16.70;34.49;101682.94;5180406;28;20649;-44
2022/04/11 11:46:55;;;;;;;17.57;9.17;;;;;;;16.62;34.62;101668.78;5185504;28;20626;-41
2022/04/11 11:49:39;;;;;;;14.17;8.93;;;;;;;16.45;34.79;101642.13;5192642;28;20448;-41
2022/04/11 11:52:16;;;;;;;13.40;8.15;;;;;;;16.82;34.40;101683.44;5183789;28;20546;-43
2022/04/11 11:54:50;;;;;;;14.02;9.25;;;;;;;17.02;34.38;101676.69;5180078;28;20415;-45
2022/04/11 11:57:28;;;;;;;12.05;8.45;;;;;;;16.88;34.45;101664.09;5184313;28;20488;-42